sensor_id;sensor_type;location;lat;lon;timestamp;P1;durP1;ratioP1;P2;durP2;ratioP2
48241;SDS011;34041;51.812;4.622;2023-02-26T00:02:15;5.80;;;2.00;;
48241;SDS011;34041;51.812;4.622;2023-02-26T00:05:15;2.80;;;1.52;;
48241;SDS011;34041;51.812;4.622;2023-02-26T00:08:16;5.05;;;1.75;;
48241;SDS011;34041;51.812;4.622;2023-02-26T00:11:16;6.20;;;2.67;;
48241;SDS011;34041;51.812;4.622;2023-02-26T00:14:16;4.15;;;1.70;;
48241;SDS011;34041;51.812;4.622;2023-02-26T00:20:17;8.30;;;2.70;;
48241;SDS011;34041;51.812;4.622;2023-02-26T00:23:17;3.25;;;1.73;;
48241;SDS011;34041;51.812;4.622;2023-02-26T00:26:18;5.75;;;2.08;;
48241;SDS011;34041;51.812;4.622;2023-02-26T00:29:18;4.70;;;1.95;;
48241;SDS011;34041;51.812;4.622;2023-02-26T00:32:19;4.03;;;1.88;;
48241;SDS011;34041;51.812;4.622;2023-02-26T00:35:19;6.28;;;2.25;;
48241;SDS011;34041;51.812;4.622;2023-02-26T00:38:20;5.65;;;1.85;;
48241;SDS011;34041;51.812;4.622;2023-02-26T00:41:20;5.05;;;1.88;;
48241;SDS011;34041;51.812;4.622;2023-02-26T00:44:20;5.70;;;2.53;;
48241;SDS011;34041;51.812;4.622;2023-02-26T00:50:24;4.38;;;1.63;;
48241;SDS011;34041;51.812;4.622;2023-02-26T00:53:31;5.20;;;1.85;;
48241;SDS011;34041;51.812;4.622;2023-02-26T00:56:32;5.05;;;2.13;;
48241;SDS011;34041;51.812;4.622;2023-02-26T00:59:33;3.63;;;1.33;;
48241;SDS011;34041;51.812;4.622;2023-02-26T01:02:33;2.43;;;1.23;;
48241;SDS011;34041;51.812;4.622;2023-02-26T01:05:34;6.53;;;1.80;;
48241;SDS011;34041;51.812;4.622;2023-02-26T01:08:37;4.30;;;2.00;;
48241;SDS011;34041;51.812;4.622;2023-02-26T01:11:41;3.30;;;1.60;;
48241;SDS011;34041;51.812;4.622;2023-02-26T01:14:41;4.85;;;1.77;;
48241;SDS011;34041;51.812;4.622;2023-02-26T01:17:56;5.15;;;1.80;;
48241;SDS011;34041;51.812;4.622;2023-02-26T01:21:02;5.05;;;1.58;;
48241;SDS011;34041;51.812;4.622;2023-02-26T01:24:04;3.08;;;1.52;;
48241;SDS011;34041;51.812;4.622;2023-02-26T01:27:04;6.90;;;1.75;;
48241;SDS011;34041;51.812;4.622;2023-02-26T01:30:05;2.80;;;1.60;;
48241;SDS011;34041;51.812;4.622;2023-02-26T01:36:07;3.27;;;1.87;;
48241;SDS011;34041;51.812;4.622;2023-02-26T01:40:15;3.97;;;1.45;;
48241;SDS011;34041;51.812;4.622;2023-02-26T01:42:37;5.00;;;1.83;;
48241;SDS011;34041;51.812;4.622;2023-02-26T01:45:45;3.55;;;1.50;;
48241;SDS011;34041;51.812;4.622;2023-02-26T01:48:53;4.55;;;1.48;;
48241;SDS011;34041;51.812;4.622;2023-02-26T01:51:54;6.45;;;1.98;;
48241;SDS011;34041;51.812;4.622;2023-02-26T01:54:55;4.63;;;1.42;;
48241;SDS011;34041;51.812;4.622;2023-02-26T01:57:56;4.40;;;1.63;;
48241;SDS011;34041;51.812;4.622;2023-02-26T02:00:58;3.30;;;1.40;;
48241;SDS011;34041;51.812;4.622;2023-02-26T02:03:58;3.55;;;1.52;;
48241;SDS011;34041;51.812;4.622;2023-02-26T02:06:59;4.38;;;1.40;;
48241;SDS011;34041;51.812;4.622;2023-02-26T02:09:59;4.22;;;1.38;;
48241;SDS011;34041;51.812;4.622;2023-02-26T02:13:04;7.13;;;1.60;;
48241;SDS011;34041;51.812;4.622;2023-02-26T02:16:18;3.63;;;1.40;;
48241;SDS011;34041;51.812;4.622;2023-02-26T02:19:23;3.22;;;1.08;;
48241;SDS011;34041;51.812;4.622;2023-02-26T02:32:13;3.38;;;1.42;;
48241;SDS011;34041;51.812;4.622;2023-02-26T02:35:25;4.40;;;1.60;;
48241;SDS011;34041;51.812;4.622;2023-02-26T02:38:48;4.93;;;2.65;;
48241;SDS011;34041;51.812;4.622;2023-02-26T02:41:52;3.13;;;1.35;;
48241;SDS011;34041;51.812;4.622;2023-02-26T02:44:58;4.47;;;1.52;;
48241;SDS011;34041;51.812;4.622;2023-02-26T02:48:01;2.03;;;1.00;;
48241;SDS011;34041;51.812;4.622;2023-02-26T02:51:11;3.03;;;1.33;;
48241;SDS011;34041;51.812;4.622;2023-02-26T02:54:14;4.15;;;1.33;;
48241;SDS011;34041;51.812;4.622;2023-02-26T02:57:17;3.97;;;1.55;;
48241;SDS011;34041;51.812;4.622;2023-02-26T03:00:20;3.05;;;1.15;;
48241;SDS011;34041;51.812;4.622;2023-02-26T03:06:36;4.53;;;1.73;;
48241;SDS011;34041;51.812;4.622;2023-02-26T03:09:36;3.75;;;1.10;;
48241;SDS011;34041;51.812;4.622;2023-02-26T03:12:36;3.20;;;1.00;;
48241;SDS011;34041;51.812;4.622;2023-02-26T03:15:38;2.80;;;1.03;;
48241;SDS011;34041;51.812;4.622;2023-02-26T03:27:55;4.35;;;1.10;;
48241;SDS011;34041;51.812;4.622;2023-02-26T03:31:01;3.40;;;1.35;;
48241;SDS011;34041;51.812;4.622;2023-02-26T03:34:07;3.00;;;1.13;;
48241;SDS011;34041;51.812;4.622;2023-02-26T03:40:15;3.78;;;1.20;;
48241;SDS011;34041;51.812;4.622;2023-02-26T03:43:18;3.67;;;1.15;;
48241;SDS011;34041;51.812;4.622;2023-02-26T03:46:25;5.65;;;1.15;;
48241;SDS011;34041;51.812;4.622;2023-02-26T03:49:28;3.80;;;0.88;;
48241;SDS011;34041;51.812;4.622;2023-02-26T03:52:30;5.90;;;1.00;;
48241;SDS011;34041;51.812;4.622;2023-02-26T03:55:38;4.78;;;1.02;;
48241;SDS011;34041;51.812;4.622;2023-02-26T03:58:38;4.25;;;1.23;;
48241;SDS011;34041;51.812;4.622;2023-02-26T04:01:40;2.10;;;1.10;;
48241;SDS011;34041;51.812;4.622;2023-02-26T04:04:47;2.78;;;1.10;;
48241;SDS011;34041;51.812;4.622;2023-02-26T04:07:48;1.38;;;0.70;;
48241;SDS011;34041;51.812;4.622;2023-02-26T04:11:31;2.85;;;0.85;;
48241;SDS011;34041;51.812;4.622;2023-02-26T04:14:12;3.35;;;0.90;;
48241;SDS011;34041;51.812;4.622;2023-02-26T04:17:12;2.85;;;1.20;;
48241;SDS011;34041;51.812;4.622;2023-02-26T04:20:13;3.03;;;0.85;;
48241;SDS011;34041;51.812;4.622;2023-02-26T04:23:13;2.90;;;0.70;;
48241;SDS011;34041;51.812;4.622;2023-02-26T04:26:14;5.07;;;0.93;;
48241;SDS011;34041;51.812;4.622;2023-02-26T04:29:14;4.40;;;1.48;;
48241;SDS011;34041;51.812;4.622;2023-02-26T04:32:14;2.10;;;0.90;;
48241;SDS011;34041;51.812;4.622;2023-02-26T04:35:14;4.37;;;1.37;;
48241;SDS011;34041;51.812;4.622;2023-02-26T04:38:14;5.63;;;0.75;;
48241;SDS011;34041;51.812;4.622;2023-02-26T04:41:15;2.40;;;1.10;;
48241;SDS011;34041;51.812;4.622;2023-02-26T04:44:15;4.23;;;1.07;;
48241;SDS011;34041;51.812;4.622;2023-02-26T04:47:15;3.07;;;1.10;;
48241;SDS011;34041;51.812;4.622;2023-02-26T04:50:15;2.70;;;0.90;;
48241;SDS011;34041;51.812;4.622;2023-02-26T04:53:16;4.60;;;1.50;;
48241;SDS011;34041;51.812;4.622;2023-02-26T04:56:16;2.87;;;1.17;;
48241;SDS011;34041;51.812;4.622;2023-02-26T04:59:16;2.20;;;1.00;;
48241;SDS011;34041;51.812;4.622;2023-02-26T05:02:16;3.50;;;1.38;;
48241;SDS011;34041;51.812;4.622;2023-02-26T05:05:17;3.50;;;1.33;;
48241;SDS011;34041;51.812;4.622;2023-02-26T05:08:17;2.83;;;1.00;;
48241;SDS011;34041;51.812;4.622;2023-02-26T05:11:17;2.37;;;0.77;;
48241;SDS011;34041;51.812;4.622;2023-02-26T05:14:18;3.20;;;0.98;;
48241;SDS011;34041;51.812;4.622;2023-02-26T05:17:18;2.65;;;0.70;;
48241;SDS011;34041;51.812;4.622;2023-02-26T05:20:18;2.87;;;1.27;;
48241;SDS011;34041;51.812;4.622;2023-02-26T05:23:18;3.42;;;1.25;;
48241;SDS011;34041;51.812;4.622;2023-02-26T05:26:19;3.00;;;0.93;;
48241;SDS011;34041;51.812;4.622;2023-02-26T05:29:19;3.20;;;0.88;;
48241;SDS011;34041;51.812;4.622;2023-02-26T05:32:19;2.47;;;0.85;;
48241;SDS011;34041;51.812;4.622;2023-02-26T05:35:20;2.27;;;1.00;;
48241;SDS011;34041;51.812;4.622;2023-02-26T05:38:20;4.32;;;1.20;;
48241;SDS011;34041;51.812;4.622;2023-02-26T05:41:20;2.30;;;1.10;;
48241;SDS011;34041;51.812;4.622;2023-02-26T05:44:20;2.13;;;1.17;;
48241;SDS011;34041;51.812;4.622;2023-02-26T05:47:21;3.13;;;0.82;;
48241;SDS011;34041;51.812;4.622;2023-02-26T05:50:21;2.93;;;0.80;;
48241;SDS011;34041;51.812;4.622;2023-02-26T05:53:21;2.33;;;0.80;;
48241;SDS011;34041;51.812;4.622;2023-02-26T05:56:21;3.10;;;0.73;;
48241;SDS011;34041;51.812;4.622;2023-02-26T05:59:22;2.23;;;0.80;;
48241;SDS011;34041;51.812;4.622;2023-02-26T06:02:22;2.92;;;0.95;;
48241;SDS011;34041;51.812;4.622;2023-02-26T06:05:22;2.77;;;1.10;;
48241;SDS011;34041;51.812;4.622;2023-02-26T06:08:22;5.82;;;1.05;;
48241;SDS011;34041;51.812;4.622;2023-02-26T06:11:23;2.88;;;0.95;;
48241;SDS011;34041;51.812;4.622;2023-02-26T06:14:23;2.20;;;0.75;;
48241;SDS011;34041;51.812;4.622;2023-02-26T06:17:23;2.80;;;0.90;;
48241;SDS011;34041;51.812;4.622;2023-02-26T06:20:24;1.63;;;0.75;;
48241;SDS011;34041;51.812;4.622;2023-02-26T06:23:24;2.10;;;0.77;;
48241;SDS011;34041;51.812;4.622;2023-02-26T06:26:24;3.50;;;1.23;;
48241;SDS011;34041;51.812;4.622;2023-02-26T06:29:24;1.77;;;0.70;;
48241;SDS011;34041;51.812;4.622;2023-02-26T06:32:25;3.47;;;1.10;;
48241;SDS011;34041;51.812;4.622;2023-02-26T06:35:25;2.05;;;0.75;;
48241;SDS011;34041;51.812;4.622;2023-02-26T06:38:28;4.03;;;0.98;;
48241;SDS011;34041;51.812;4.622;2023-02-26T06:41:29;3.03;;;1.07;;
48241;SDS011;34041;51.812;4.622;2023-02-26T06:44:29;2.13;;;1.00;;
48241;SDS011;34041;51.812;4.622;2023-02-26T06:47:29;1.63;;;0.60;;
48241;SDS011;34041;51.812;4.622;2023-02-26T06:50:29;4.43;;;0.67;;
48241;SDS011;34041;51.812;4.622;2023-02-26T06:53:30;2.45;;;0.75;;
48241;SDS011;34041;51.812;4.622;2023-02-26T06:56:30;2.05;;;0.85;;
48241;SDS011;34041;51.812;4.622;2023-02-26T06:59:31;3.30;;;0.90;;
48241;SDS011;34041;51.812;4.622;2023-02-26T07:02:31;4.22;;;0.90;;
48241;SDS011;34041;51.812;4.622;2023-02-26T07:05:31;2.47;;;0.80;;
48241;SDS011;34041;51.812;4.622;2023-02-26T07:08:32;1.35;;;0.70;;
48241;SDS011;34041;51.812;4.622;2023-02-26T07:11:32;2.42;;;1.00;;
48241;SDS011;34041;51.812;4.622;2023-02-26T07:14:33;1.67;;;0.75;;
48241;SDS011;34041;51.812;4.622;2023-02-26T07:17:33;3.30;;;1.17;;
48241;SDS011;34041;51.812;4.622;2023-02-26T07:20:33;1.92;;;0.75;;
48241;SDS011;34041;51.812;4.622;2023-02-26T07:23:34;1.73;;;0.83;;
48241;SDS011;34041;51.812;4.622;2023-02-26T07:26:34;1.73;;;0.70;;
48241;SDS011;34041;51.812;4.622;2023-02-26T07:29:34;1.93;;;0.87;;
48241;SDS011;34041;51.812;4.622;2023-02-26T07:32:34;2.75;;;0.80;;
48241;SDS011;34041;51.812;4.622;2023-02-26T07:35:35;1.52;;;0.57;;
48241;SDS011;34041;51.812;4.622;2023-02-26T07:38:35;2.30;;;0.80;;
48241;SDS011;34041;51.812;4.622;2023-02-26T07:41:35;2.42;;;1.00;;
48241;SDS011;34041;51.812;4.622;2023-02-26T07:44:36;4.10;;;1.05;;
48241;SDS011;34041;51.812;4.622;2023-02-26T07:47:36;2.13;;;0.80;;
48241;SDS011;34041;51.812;4.622;2023-02-26T07:50:36;5.68;;;1.05;;
48241;SDS011;34041;51.812;4.622;2023-02-26T07:53:36;2.37;;;0.80;;
48241;SDS011;34041;51.812;4.622;2023-02-26T07:56:37;1.67;;;0.55;;
48241;SDS011;34041;51.812;4.622;2023-02-26T07:59:38;3.35;;;1.20;;
48241;SDS011;34041;51.812;4.622;2023-02-26T08:02:38;2.27;;;0.90;;
48241;SDS011;34041;51.812;4.622;2023-02-26T08:05:39;1.53;;;0.80;;
48241;SDS011;34041;51.812;4.622;2023-02-26T08:08:39;3.00;;;0.90;;
48241;SDS011;34041;51.812;4.622;2023-02-26T08:11:39;3.40;;;1.10;;
48241;SDS011;34041;51.812;4.622;2023-02-26T08:14:42;2.70;;;0.88;;
48241;SDS011;34041;51.812;4.622;2023-02-26T08:17:42;2.05;;;0.65;;
48241;SDS011;34041;51.812;4.622;2023-02-26T08:20:42;2.20;;;0.90;;
48241;SDS011;34041;51.812;4.622;2023-02-26T08:23:42;3.03;;;0.97;;
48241;SDS011;34041;51.812;4.622;2023-02-26T08:26:43;2.37;;;1.10;;
48241;SDS011;34041;51.812;4.622;2023-02-26T08:29:45;3.10;;;0.80;;
48241;SDS011;34041;51.812;4.622;2023-02-26T08:32:45;4.43;;;1.30;;
48241;SDS011;34041;51.812;4.622;2023-02-26T08:35:45;3.10;;;1.10;;
48241;SDS011;34041;51.812;4.622;2023-02-26T08:38:46;2.90;;;0.90;;
48241;SDS011;34041;51.812;4.622;2023-02-26T08:41:46;2.13;;;1.00;;
48241;SDS011;34041;51.812;4.622;2023-02-26T08:44:46;2.10;;;1.00;;
48241;SDS011;34041;51.812;4.622;2023-02-26T08:47:47;7.70;;;1.53;;
48241;SDS011;34041;51.812;4.622;2023-02-26T08:50:47;1.60;;;0.70;;
48241;SDS011;34041;51.812;4.622;2023-02-26T08:53:47;2.75;;;1.25;;
48241;SDS011;34041;51.812;4.622;2023-02-26T08:56:49;3.70;;;1.15;;
48241;SDS011;34041;51.812;4.622;2023-02-26T08:59:49;1.65;;;0.88;;
48241;SDS011;34041;51.812;4.622;2023-02-26T09:02:50;1.83;;;0.93;;
48241;SDS011;34041;51.812;4.622;2023-02-26T09:05:50;2.23;;;0.83;;
48241;SDS011;34041;51.812;4.622;2023-02-26T09:08:50;2.53;;;1.02;;
48241;SDS011;34041;51.812;4.622;2023-02-26T09:11:50;2.77;;;0.83;;
48241;SDS011;34041;51.812;4.622;2023-02-26T09:14:51;5.03;;;0.85;;
48241;SDS011;34041;51.812;4.622;2023-02-26T09:17:51;2.70;;;1.17;;
48241;SDS011;34041;51.812;4.622;2023-02-26T09:20:51;3.45;;;1.65;;
48241;SDS011;34041;51.812;4.622;2023-02-26T09:23:52;3.28;;;1.05;;
48241;SDS011;34041;51.812;4.622;2023-02-26T09:26:52;2.50;;;0.80;;
48241;SDS011;34041;51.812;4.622;2023-02-26T09:29:52;2.80;;;0.83;;
48241;SDS011;34041;51.812;4.622;2023-02-26T09:32:52;2.80;;;0.83;;
48241;SDS011;34041;51.812;4.622;2023-02-26T09:35:53;7.77;;;1.23;;
48241;SDS011;34041;51.812;4.622;2023-02-26T09:38:53;2.03;;;0.80;;
48241;SDS011;34041;51.812;4.622;2023-02-26T09:41:54;2.28;;;0.80;;
48241;SDS011;34041;51.812;4.622;2023-02-26T09:44:56;3.60;;;1.05;;
48241;SDS011;34041;51.812;4.622;2023-02-26T09:47:59;2.72;;;1.08;;
48241;SDS011;34041;51.812;4.622;2023-02-26T09:51:02;3.15;;;1.23;;
48241;SDS011;34041;51.812;4.622;2023-02-26T09:54:08;2.22;;;0.82;;
48241;SDS011;34041;51.812;4.622;2023-02-26T09:57:10;2.58;;;0.90;;
48241;SDS011;34041;51.812;4.622;2023-02-26T10:00:23;2.35;;;1.05;;
48241;SDS011;34041;51.812;4.622;2023-02-26T10:03:29;2.42;;;1.15;;
48241;SDS011;34041;51.812;4.622;2023-02-26T10:06:45;2.47;;;0.90;;
48241;SDS011;34041;51.812;4.622;2023-02-26T10:12:48;2.97;;;0.77;;
48241;SDS011;34041;51.812;4.622;2023-02-26T10:15:49;2.10;;;0.60;;
48241;SDS011;34041;51.812;4.622;2023-02-26T10:18:54;2.10;;;0.75;;
48241;SDS011;34041;51.812;4.622;2023-02-26T10:21:59;2.42;;;0.90;;
48241;SDS011;34041;51.812;4.622;2023-02-26T10:25:04;3.67;;;1.07;;
48241;SDS011;34041;51.812;4.622;2023-02-26T10:43:41;2.28;;;0.80;;
48241;SDS011;34041;51.812;4.622;2023-02-26T10:52:57;3.25;;;0.77;;
48241;SDS011;34041;51.812;4.622;2023-02-26T10:56:08;2.47;;;0.80;;
48241;SDS011;34041;51.812;4.622;2023-02-26T10:59:10;2.30;;;0.80;;
48241;SDS011;34041;51.812;4.622;2023-02-26T11:02:22;2.50;;;1.00;;
48241;SDS011;34041;51.812;4.622;2023-02-26T11:05:28;3.20;;;0.82;;
48241;SDS011;34041;51.812;4.622;2023-02-26T11:08:32;1.45;;;0.80;;
48241;SDS011;34041;51.812;4.622;2023-02-26T11:11:35;1.88;;;0.60;;
48241;SDS011;34041;51.812;4.622;2023-02-26T11:14:35;1.98;;;0.63;;
48241;SDS011;34041;51.812;4.622;2023-02-26T11:17:36;2.28;;;0.90;;
48241;SDS011;34041;51.812;4.622;2023-02-26T11:20:38;1.85;;;1.02;;
48241;SDS011;34041;51.812;4.622;2023-02-26T11:23:39;4.68;;;0.88;;
48241;SDS011;34041;51.812;4.622;2023-02-26T11:26:42;3.35;;;1.02;;
48241;SDS011;34041;51.812;4.622;2023-02-26T11:29:45;1.95;;;0.52;;
48241;SDS011;34041;51.812;4.622;2023-02-26T11:32:51;4.95;;;0.93;;
48241;SDS011;34041;51.812;4.622;2023-02-26T11:35:51;2.30;;;0.82;;
48241;SDS011;34041;51.812;4.622;2023-02-26T11:38:55;2.63;;;0.70;;
48241;SDS011;34041;51.812;4.622;2023-02-26T11:41:56;4.13;;;0.90;;
48241;SDS011;34041;51.812;4.622;2023-02-26T11:44:57;2.42;;;1.00;;
48241;SDS011;34041;51.812;4.622;2023-02-26T11:47:58;4.15;;;1.13;;
48241;SDS011;34041;51.812;4.622;2023-02-26T11:51:01;1.38;;;0.52;;
48241;SDS011;34041;51.812;4.622;2023-02-26T11:54:03;4.03;;;0.80;;
48241;SDS011;34041;51.812;4.622;2023-02-26T11:57:19;2.25;;;0.82;;
48241;SDS011;34041;51.812;4.622;2023-02-26T12:00:29;1.58;;;0.65;;
48241;SDS011;34041;51.812;4.622;2023-02-26T12:03:31;2.75;;;0.68;;
48241;SDS011;34041;51.812;4.622;2023-02-26T12:06:32;3.45;;;0.75;;
48241;SDS011;34041;51.812;4.622;2023-02-26T12:09:32;4.50;;;0.80;;
48241;SDS011;34041;51.812;4.622;2023-02-26T12:13:19;7.40;;;1.80;;
48241;SDS011;34041;51.812;4.622;2023-02-26T12:19:17;8.85;;;1.60;;
48241;SDS011;34041;51.812;4.622;2023-02-26T12:22:24;6.22;;;1.50;;
48241;SDS011;34041;51.812;4.622;2023-02-26T12:28:42;6.57;;;1.50;;
48241;SDS011;34041;51.812;4.622;2023-02-26T12:35:21;7.85;;;1.58;;
48241;SDS011;34041;51.812;4.622;2023-02-26T12:41:36;3.50;;;1.17;;
48241;SDS011;34041;51.812;4.622;2023-02-26T13:00:39;1.58;;;0.82;;
48241;SDS011;34041;51.812;4.622;2023-02-26T13:19:28;2.65;;;0.65;;
48241;SDS011;34041;51.812;4.622;2023-02-26T13:22:39;2.22;;;0.90;;
48241;SDS011;34041;51.812;4.622;2023-02-26T13:25:44;1.92;;;0.82;;
48241;SDS011;34041;51.812;4.622;2023-02-26T13:28:57;1.75;;;0.75;;
48241;SDS011;34041;51.812;4.622;2023-02-26T13:31:59;3.17;;;0.90;;
48241;SDS011;34041;51.812;4.622;2023-02-26T13:35:04;2.15;;;0.80;;
48241;SDS011;34041;51.812;4.622;2023-02-26T13:38:28;1.05;;;0.90;;
48241;SDS011;34041;51.812;4.622;2023-02-26T13:44:53;3.83;;;1.00;;
48241;SDS011;34041;51.812;4.622;2023-02-26T13:48:02;2.35;;;1.00;;
48241;SDS011;34041;51.812;4.622;2023-02-26T13:51:08;3.67;;;1.00;;
48241;SDS011;34041;51.812;4.622;2023-02-26T13:57:33;2.53;;;0.65;;
48241;SDS011;34041;51.812;4.622;2023-02-26T14:00:34;1.52;;;0.68;;
48241;SDS011;34041;51.812;4.622;2023-02-26T14:03:35;2.40;;;0.80;;
48241;SDS011;34041;51.812;4.622;2023-02-26T14:06:43;2.83;;;0.88;;
48241;SDS011;34041;51.812;4.622;2023-02-26T14:10:00;1.23;;;0.70;;
48241;SDS011;34041;51.812;4.622;2023-02-26T14:13:02;2.13;;;0.90;;
48241;SDS011;34041;51.812;4.622;2023-02-26T14:16:20;3.22;;;0.68;;
48241;SDS011;34041;51.812;4.622;2023-02-26T14:19:23;1.38;;;0.70;;
48241;SDS011;34041;51.812;4.622;2023-02-26T14:25:32;2.50;;;0.90;;
48241;SDS011;34041;51.812;4.622;2023-02-26T14:28:39;1.80;;;0.60;;
48241;SDS011;34041;51.812;4.622;2023-02-26T14:34:48;1.98;;;0.77;;
48241;SDS011;34041;51.812;4.622;2023-02-26T14:40:58;1.65;;;0.60;;
48241;SDS011;34041;51.812;4.622;2023-02-26T14:44:20;1.60;;;0.77;;
48241;SDS011;34041;51.812;4.622;2023-02-26T14:47:22;1.60;;;1.00;;
48241;SDS011;34041;51.812;4.622;2023-02-26T14:50:22;2.47;;;0.90;;
48241;SDS011;34041;51.812;4.622;2023-02-26T15:03:34;1.73;;;0.80;;
48241;SDS011;34041;51.812;4.622;2023-02-26T15:10:02;2.83;;;0.90;;
48241;SDS011;34041;51.812;4.622;2023-02-26T15:22:35;2.30;;;0.82;;
48241;SDS011;34041;51.812;4.622;2023-02-26T15:25:38;2.70;;;0.88;;
48241;SDS011;34041;51.812;4.622;2023-02-26T15:28:39;2.50;;;0.60;;
48241;SDS011;34041;51.812;4.622;2023-02-26T15:31:42;1.73;;;0.75;;
48241;SDS011;34041;51.812;4.622;2023-02-26T15:34:46;1.75;;;0.73;;
48241;SDS011;34041;51.812;4.622;2023-02-26T15:37:51;2.50;;;0.70;;
48241;SDS011;34041;51.812;4.622;2023-02-26T15:44:00;2.58;;;0.85;;
48241;SDS011;34041;51.812;4.622;2023-02-26T15:47:01;2.65;;;0.73;;
48241;SDS011;34041;51.812;4.622;2023-02-26T15:50:02;2.53;;;0.70;;
48241;SDS011;34041;51.812;4.622;2023-02-26T15:53:03;2.33;;;0.80;;
48241;SDS011;34041;51.812;4.622;2023-02-26T15:56:04;2.90;;;0.95;;
48241;SDS011;34041;51.812;4.622;2023-02-26T15:59:07;1.75;;;0.70;;
48241;SDS011;34041;51.812;4.622;2023-02-26T16:02:10;3.08;;;0.90;;
48241;SDS011;34041;51.812;4.622;2023-02-26T16:05:11;2.40;;;0.82;;
48241;SDS011;34041;51.812;4.622;2023-02-26T16:08:13;4.20;;;1.05;;
48241;SDS011;34041;51.812;4.622;2023-02-26T16:11:17;1.40;;;0.57;;
48241;SDS011;34041;51.812;4.622;2023-02-26T16:14:23;1.45;;;0.77;;
48241;SDS011;34041;51.812;4.622;2023-02-26T16:17:29;1.25;;;0.65;;
48241;SDS011;34041;51.812;4.622;2023-02-26T16:23:36;2.20;;;0.90;;
48241;SDS011;34041;51.812;4.622;2023-02-26T16:26:38;1.80;;;0.68;;
48241;SDS011;34041;51.812;4.622;2023-02-26T16:29:43;2.55;;;1.15;;
48241;SDS011;34041;51.812;4.622;2023-02-26T16:32:44;3.30;;;0.90;;
48241;SDS011;34041;51.812;4.622;2023-02-26T16:35:47;2.67;;;0.80;;
48241;SDS011;34041;51.812;4.622;2023-02-26T16:38:48;24.30;;;11.75;;
48241;SDS011;34041;51.812;4.622;2023-02-26T16:41:59;377.88;;;161.20;;
48241;SDS011;34041;51.812;4.622;2023-02-26T16:45:01;419.05;;;201.30;;
48241;SDS011;34041;51.812;4.622;2023-02-26T16:48:08;310.00;;;142.80;;
48241;SDS011;34041;51.812;4.622;2023-02-26T16:51:12;283.52;;;132.82;;
48241;SDS011;34041;51.812;4.622;2023-02-26T16:54:18;296.63;;;132.80;;
48241;SDS011;34041;51.812;4.622;2023-02-26T16:57:22;260.52;;;114.72;;
48241;SDS011;34041;51.812;4.622;2023-02-26T17:00:23;226.35;;;108.00;;
48241;SDS011;34041;51.812;4.622;2023-02-26T17:03:30;207.02;;;96.57;;
48241;SDS011;34041;51.812;4.622;2023-02-26T17:06:30;191.23;;;87.40;;
48241;SDS011;34041;51.812;4.622;2023-02-26T17:09:38;190.20;;;84.72;;
48241;SDS011;34041;51.812;4.622;2023-02-26T17:12:41;175.90;;;78.07;;
48241;SDS011;34041;51.812;4.622;2023-02-26T17:15:43;160.02;;;73.68;;
48241;SDS011;34041;51.812;4.622;2023-02-26T17:18:43;156.80;;;71.63;;
48241;SDS011;34041;51.812;4.622;2023-02-26T17:21:48;148.73;;;68.03;;
48241;SDS011;34041;51.812;4.622;2023-02-26T17:24:48;129.32;;;60.85;;
48241;SDS011;34041;51.812;4.622;2023-02-26T17:27:49;133.15;;;60.30;;
48241;SDS011;34041;51.812;4.622;2023-02-26T17:30:50;111.38;;;53.47;;
48241;SDS011;34041;51.812;4.622;2023-02-26T17:33:50;111.80;;;53.17;;
48241;SDS011;34041;51.812;4.622;2023-02-26T17:36:51;90.35;;;46.13;;
48241;SDS011;34041;51.812;4.622;2023-02-26T17:39:52;102.05;;;43.03;;
48241;SDS011;34041;51.812;4.622;2023-02-26T17:42:52;83.27;;;39.07;;
48241;SDS011;34041;51.812;4.622;2023-02-26T17:45:52;83.72;;;39.55;;
48241;SDS011;34041;51.812;4.622;2023-02-26T17:48:52;81.35;;;37.28;;
48241;SDS011;34041;51.812;4.622;2023-02-26T17:51:53;75.27;;;34.23;;
48241;SDS011;34041;51.812;4.622;2023-02-26T17:54:53;69.47;;;30.70;;
48241;SDS011;34041;51.812;4.622;2023-02-26T17:57:54;71.13;;;34.80;;
48241;SDS011;34041;51.812;4.622;2023-02-26T18:00:55;55.90;;;28.08;;
48241;SDS011;34041;51.812;4.622;2023-02-26T18:03:55;60.47;;;28.35;;
48241;SDS011;34041;51.812;4.622;2023-02-26T18:06:56;51.40;;;23.90;;
48241;SDS011;34041;51.812;4.622;2023-02-26T18:09:56;49.60;;;24.37;;
48241;SDS011;34041;51.812;4.622;2023-02-26T18:12:56;45.17;;;21.63;;
48241;SDS011;34041;51.812;4.622;2023-02-26T18:15:57;40.00;;;21.47;;
48241;SDS011;34041;51.812;4.622;2023-02-26T18:18:58;39.63;;;20.95;;
48241;SDS011;34041;51.812;4.622;2023-02-26T18:21:58;44.70;;;20.30;;
48241;SDS011;34041;51.812;4.622;2023-02-26T18:24:58;33.43;;;16.30;;
48241;SDS011;34041;51.812;4.622;2023-02-26T18:27:59;32.87;;;16.70;;
48241;SDS011;34041;51.812;4.622;2023-02-26T18:30:59;35.40;;;16.20;;
48241;SDS011;34041;51.812;4.622;2023-02-26T18:34:01;30.17;;;15.88;;
48241;SDS011;34041;51.812;4.622;2023-02-26T18:37:01;28.38;;;14.35;;
48241;SDS011;34041;51.812;4.622;2023-02-26T18:40:03;28.55;;;13.20;;
48241;SDS011;34041;51.812;4.622;2023-02-26T18:43:04;28.42;;;12.10;;
48241;SDS011;34041;51.812;4.622;2023-02-26T18:46:04;24.45;;;11.40;;
48241;SDS011;34041;51.812;4.622;2023-02-26T18:49:05;22.37;;;11.47;;
48241;SDS011;34041;51.812;4.622;2023-02-26T18:52:05;23.17;;;10.63;;
48241;SDS011;34041;51.812;4.622;2023-02-26T18:55:06;17.97;;;9.90;;
48241;SDS011;34041;51.812;4.622;2023-02-26T18:58:06;24.13;;;10.70;;
48241;SDS011;34041;51.812;4.622;2023-02-26T19:01:06;17.55;;;9.43;;
48241;SDS011;34041;51.812;4.622;2023-02-26T19:04:06;14.13;;;7.30;;
48241;SDS011;34041;51.812;4.622;2023-02-26T19:07:07;17.10;;;7.90;;
48241;SDS011;34041;51.812;4.622;2023-02-26T19:10:08;16.20;;;8.07;;
48241;SDS011;34041;51.812;4.622;2023-02-26T19:13:10;17.27;;;7.50;;
48241;SDS011;34041;51.812;4.622;2023-02-26T19:16:10;14.20;;;6.57;;
48241;SDS011;34041;51.812;4.622;2023-02-26T19:19:10;15.37;;;6.83;;
48241;SDS011;34041;51.812;4.622;2023-02-26T19:22:11;13.37;;;5.83;;
48241;SDS011;34041;51.812;4.622;2023-02-26T19:25:13;10.45;;;5.68;;
48241;SDS011;34041;51.812;4.622;2023-02-26T19:28:13;14.32;;;5.97;;
48241;SDS011;34041;51.812;4.622;2023-02-26T19:31:13;9.20;;;5.18;;
48241;SDS011;34041;51.812;4.622;2023-02-26T19:34:14;13.48;;;5.45;;
48241;SDS011;34041;51.812;4.622;2023-02-26T19:37:14;8.82;;;4.22;;
48241;SDS011;34041;51.812;4.622;2023-02-26T19:40:14;12.25;;;5.32;;
48241;SDS011;34041;51.812;4.622;2023-02-26T19:43:18;14.65;;;5.00;;
48241;SDS011;34041;51.812;4.622;2023-02-26T19:46:18;7.25;;;4.18;;
48241;SDS011;34041;51.812;4.622;2023-02-26T19:49:19;9.75;;;5.20;;
48241;SDS011;34041;51.812;4.622;2023-02-26T19:52:19;7.50;;;4.25;;
48241;SDS011;34041;51.812;4.622;2023-02-26T19:55:19;8.48;;;4.32;;
48241;SDS011;34041;51.812;4.622;2023-02-26T19:58:20;7.78;;;4.00;;
48241;SDS011;34041;51.812;4.622;2023-02-26T20:01:20;7.75;;;3.85;;
48241;SDS011;34041;51.812;4.622;2023-02-26T20:04:20;9.03;;;3.73;;
48241;SDS011;34041;51.812;4.622;2023-02-26T20:07:20;9.63;;;4.40;;
48241;SDS011;34041;51.812;4.622;2023-02-26T20:10:21;7.67;;;3.27;;
48241;SDS011;34041;51.812;4.622;2023-02-26T20:13:23;6.95;;;4.35;;
48241;SDS011;34041;51.812;4.622;2023-02-26T20:16:28;8.05;;;4.13;;
48241;SDS011;34041;51.812;4.622;2023-02-26T20:19:28;9.10;;;4.32;;
48241;SDS011;34041;51.812;4.622;2023-02-26T20:22:29;7.03;;;3.47;;
48241;SDS011;34041;51.812;4.622;2023-02-26T20:25:29;5.33;;;3.63;;
48241;SDS011;34041;51.812;4.622;2023-02-26T20:28:29;8.02;;;4.30;;
48241;SDS011;34041;51.812;4.622;2023-02-26T20:31:29;7.55;;;3.10;;
48241;SDS011;34041;51.812;4.622;2023-02-26T20:34:30;6.13;;;3.53;;
48241;SDS011;34041;51.812;4.622;2023-02-26T20:37:31;6.53;;;3.60;;
48241;SDS011;34041;51.812;4.622;2023-02-26T20:40:31;5.88;;;4.30;;
48241;SDS011;34041;51.812;4.622;2023-02-26T20:43:31;5.82;;;3.65;;